Time;durP1;ratioP1;P1;durP2;ratioP2;P2;SDS_P1;SDS_P2;PMS_P1;PMS_P2;Temp;Humidity;BMP_temperature;BMP_pressure;BME280_temperature;BME280_humidity;BME280_pressure;Samples;Min_cycle;Max_cycle;Signal;HPM_P1;HPM_P2
2023/01/15 00:01:49;;;;;;;10.40;1.75;;;;;;;;;;5053586;28;20076;-73
2023/01/15 00:04:17;;;;;;;8.82;1.20;;;;;;;;;;5052711;28;20049;-73
2023/01/15 00:06:43;;;;;;;12.50;1.73;;;;;;;;;;5053389;28;20076;-72
2023/01/15 00:09:12;;;;;;;10.20;1.65;;;;;;;;;;5052961;28;20114;-72
2023/01/15 00:11:38;;;;;;;12.45;1.73;;;;;;;;;;5053411;28;20041;-72
2023/01/15 00:14:04;;;;;;;14.18;2.13;;;;;;;;;;5052941;28;20062;-73
2023/01/15 00:16:30;;;;;;;10.73;1.33;;;;;;;;;;5053463;28;20477;-72
2023/01/15 00:18:58;;;;;;;10.93;1.48;;;;;;;;;;5052780;28;20064;-72
2023/01/15 00:21:24;;;;;;;10.70;1.55;;;;;;;;;;5052803;28;20648;-72
2023/01/15 00:29:22;;;;;;;6.80;1.23;;;;;;;;;;5053917;28;20045;-72
2023/01/15 00:31:55;;;;;;;12.32;1.45;;;;;;;;;;5053211;28;20073;-72
2023/01/15 00:34:22;;;;;;;8.82;1.55;;;;;;;;;;5052568;28;20456;-72
2023/01/15 00:36:48;;;;;;;10.93;1.75;;;;;;;;;;5054143;28;20082;-73
2023/01/15 00:39:14;;;;;;;7.45;1.83;;;;;;;;;;5052508;28;20052;-73
2023/01/15 00:41:40;;;;;;;9.45;1.70;;;;;;;;;;5052670;28;20076;-73
2023/01/15 00:44:06;;;;;;;6.28;1.17;;;;;;;;;;5052979;28;20068;-73
2023/01/15 00:46:32;;;;;;;13.32;1.23;;;;;;;;;;5052706;28;20116;-73
2023/01/15 00:48:58;;;;;;;13.15;1.90;;;;;;;;;;5052584;28;20037;-73
2023/01/15 00:51:24;;;;;;;13.68;1.67;;;;;;;;;;5052503;28;20581;-74
2023/01/15 00:53:50;;;;;;;10.80;2.08;;;;;;;;;;5052738;28;20048;-73
2023/01/15 00:56:16;;;;;;;10.80;1.98;;;;;;;;;;5053702;28;20090;-73
2023/01/15 00:58:42;;;;;;;12.57;1.48;;;;;;;;;;5054076;28;20516;-73
2023/01/15 01:01:08;;;;;;;12.65;1.92;;;;;;;;;;5052153;28;20037;-73
2023/01/15 01:03:34;;;;;;;14.15;1.48;;;;;;;;;;5052622;28;20502;-73
2023/01/15 01:06:01;;;;;;;14.10;1.50;;;;;;;;;;5052253;28;20041;-73
2023/01/15 01:08:27;;;;;;;10.38;1.38;;;;;;;;;;5051947;28;20454;-73
2023/01/15 01:11:07;;;;;;;14.60;1.60;;;;;;;;;;5052252;28;20397;-74
2023/01/15 01:13:33;;;;;;;13.90;1.30;;;;;;;;;;5051900;28;20045;-73
2023/01/15 01:15:59;;;;;;;13.05;1.60;;;;;;;;;;5053217;28;20175;-72
2023/01/15 01:18:26;;;;;;;13.27;2.15;;;;;;;;;;5052047;28;20397;-72
2023/01/15 01:20:52;;;;;;;10.85;1.75;;;;;;;;;;5051798;28;20037;-71
2023/01/15 01:23:18;;;;;;;8.25;1.38;;;;;;;;;;5068221;28;20078;-70
2023/01/15 01:25:44;;;;;;;13.57;1.55;;;;;;;;;;5051918;28;20119;-71
2023/01/15 01:28:10;;;;;;;11.93;1.63;;;;;;;;;;5051767;28;20037;-71
2023/01/15 01:30:37;;;;;;;11.23;1.80;;;;;;;;;;5051115;28;20044;-71
2023/01/15 01:33:04;;;;;;;15.23;1.83;;;;;;;;;;5051640;28;20045;-71
2023/01/15 01:35:30;;;;;;;12.10;1.83;;;;;;;;;;5051678;28;20592;-71
2023/01/15 01:37:56;;;;;;;12.20;1.80;;;;;;;;;;5051788;28;20044;-71
2023/01/15 01:40:22;;;;;;;13.65;1.50;;;;;;;;;;5051326;28;20398;-71
2023/01/15 01:42:48;;;;;;;9.15;1.95;;;;;;;;;;5035192;28;20094;-71
2023/01/15 01:45:29;;;;;;;10.65;1.52;;;;;;;;;;5051677;28;20367;-71
2023/01/15 01:47:57;;;;;;;13.40;1.90;;;;;;;;;;5051837;28;20505;-71
2023/01/15 01:50:24;;;;;;;9.25;1.40;;;;;;;;;;5051106;28;20497;-71
2023/01/15 01:52:55;;;;;;;12.40;1.45;;;;;;;;;;5037865;28;20062;-71
2023/01/15 01:55:23;;;;;;;10.93;1.50;;;;;;;;;;5034421;28;20044;-71
2023/01/15 01:57:50;;;;;;;11.32;1.65;;;;;;;;;;5051289;28;20041;-71
2023/01/15 02:00:16;;;;;;;15.20;1.60;;;;;;;;;;5052382;28;20501;-71
2023/01/15 02:02:46;;;;;;;11.48;1.50;;;;;;;;;;5051366;28;20045;-71
2023/01/15 02:05:14;;;;;;;16.55;1.73;;;;;;;;;;5051260;28;20036;-71
2023/01/15 02:07:40;;;;;;;13.80;1.98;;;;;;;;;;5050660;28;20115;-71
2023/01/15 02:10:06;;;;;;;9.07;1.60;;;;;;;;;;5051209;28;20048;-71
2023/01/15 02:12:36;;;;;;;10.77;1.50;;;;;;;;;;5050849;28;20501;-71
2023/01/15 02:15:06;;;;;;;9.98;1.60;;;;;;;;;;5051662;28;20043;-71
2023/01/15 02:17:46;;;;;;;16.23;1.98;;;;;;;;;;5050910;28;20037;-71
2023/01/15 02:20:18;;;;;;;10.32;1.52;;;;;;;;;;5051343;28;20037;-71
2023/01/15 02:22:48;;;;;;;13.45;1.70;;;;;;;;;;5050817;28;20044;-71
2023/01/15 02:25:19;;;;;;;12.15;1.48;;;;;;;;;;5050971;28;20067;-71
2023/01/15 02:28:08;;;;;;;7.45;1.50;;;;;;;;;;5051156;28;20506;-71
2023/01/15 02:30:37;;;;;;;13.65;1.85;;;;;;;;;;5050630;28;20098;-71
2023/01/15 02:33:07;;;;;;;9.93;1.73;;;;;;;;;;5050635;28;20106;-71
2023/01/15 02:35:33;;;;;;;12.60;1.90;;;;;;;;;;5050496;28;20044;-71
2023/01/15 02:38:01;;;;;;;10.75;1.73;;;;;;;;;;5050541;28;20090;-71
2023/01/15 02:40:28;;;;;;;12.00;1.85;;;;;;;;;;5037195;28;20120;-71
2023/01/15 02:42:54;;;;;;;9.68;1.80;;;;;;;;;;5050789;28;20041;-72
2023/01/15 02:45:25;;;;;;;9.52;1.50;;;;;;;;;;5050206;28;20044;-72
2023/01/15 02:47:52;;;;;;;13.85;1.67;;;;;;;;;;5034431;28;20478;-71
2023/01/15 02:50:20;;;;;;;12.32;1.98;;;;;;;;;;5052314;28;20164;-71
2023/01/15 02:52:49;;;;;;;12.27;1.45;;;;;;;;;;5050053;28;20442;-71
2023/01/15 02:55:21;;;;;;;15.80;2.08;;;;;;;;;;5050775;28;20048;-71
2023/01/15 02:57:49;;;;;;;17.70;1.75;;;;;;;;;;5050455;28;20162;-71
2023/01/15 03:00:17;;;;;;;12.43;1.50;;;;;;;;;;5050925;28;20498;-71
2023/01/15 03:02:50;;;;;;;18.80;1.88;;;;;;;;;;5032744;28;20379;-71
2023/01/15 03:05:26;;;;;;;9.00;1.60;;;;;;;;;;5050812;28;20486;-71
2023/01/15 03:07:55;;;;;;;8.73;1.50;;;;;;;;;;5049905;28;20056;-71
2023/01/15 03:10:25;;;;;;;15.30;1.70;;;;;;;;;;5050558;28;20099;-71
2023/01/15 03:13:03;;;;;;;11.45;1.60;;;;;;;;;;5050320;28;20055;-71
2023/01/15 03:18:28;;;;;;;10.75;1.88;;;;;;;;;;5051524;28;20037;-72
2023/01/15 03:20:56;;;;;;;14.63;1.92;;;;;;;;;;5050669;28;20068;-71
2023/01/15 03:23:23;;;;;;;13.00;1.48;;;;;;;;;;5033679;28;20040;-71
2023/01/15 03:25:50;;;;;;;9.02;1.50;;;;;;;;;;5050263;28;20029;-72
2023/01/15 03:28:19;;;;;;;13.68;1.67;;;;;;;;;;5051559;28;20029;-71
2023/01/15 03:30:45;;;;;;;10.25;1.75;;;;;;;;;;5032827;28;20076;-71
2023/01/15 03:33:11;;;;;;;12.80;1.60;;;;;;;;;;5050192;28;20099;-71
2023/01/15 03:35:47;;;;;;;11.90;1.50;;;;;;;;;;5051147;28;20440;-71
2023/01/15 03:38:14;;;;;;;13.88;2.03;;;;;;;;;;5050028;28;20076;-71
2023/01/15 03:40:45;;;;;;;10.70;1.63;;;;;;;;;;5049872;28;20033;-71
2023/01/15 03:46:03;;;;;;;9.60;1.23;;;;;;;;;;5051633;28;20052;-71
2023/01/15 03:48:51;;;;;;;11.75;1.40;;;;;;;;;;5049536;28;20051;-71
2023/01/15 03:51:24;;;;;;;15.15;1.63;;;;;;;;;;5050542;28;20516;-71
2023/01/15 03:53:53;;;;;;;13.73;1.63;;;;;;;;;;5039057;28;20145;-71
2023/01/15 03:56:22;;;;;;;14.98;2.28;;;;;;;;;;5053816;28;20124;-71
2023/01/15 03:58:53;;;;;;;10.45;1.50;;;;;;;;;;5040507;28;20073;-72
2023/01/15 04:01:21;;;;;;;13.98;1.60;;;;;;;;;;5037366;28;20053;-71
2023/01/15 04:03:48;;;;;;;13.43;1.65;;;;;;;;;;5052924;28;20037;-71
2023/01/15 04:06:15;;;;;;;12.25;1.85;;;;;;;;;;5053499;28;20048;-71
2023/01/15 04:08:42;;;;;;;13.85;1.30;;;;;;;;;;5053084;28;20558;-71
2023/01/15 04:11:08;;;;;;;14.68;2.33;;;;;;;;;;5053525;28;20040;-71
2023/01/15 04:13:35;;;;;;;16.05;2.17;;;;;;;;;;5036578;28;20434;-71
2023/01/15 04:16:01;;;;;;;12.38;1.65;;;;;;;;;;5053793;28;20041;-71
2023/01/15 04:18:27;;;;;;;12.32;1.85;;;;;;;;;;5053697;28;20513;-71
2023/01/15 04:20:54;;;;;;;13.25;1.63;;;;;;;;;;5054293;28;20107;-71
2023/01/15 04:23:20;;;;;;;13.70;1.40;;;;;;;;;;5053206;28;20079;-71
2023/01/15 04:25:46;;;;;;;11.25;1.40;;;;;;;;;;5054075;28;20033;-72
2023/01/15 04:28:12;;;;;;;11.93;1.92;;;;;;;;;;5053429;28;20044;-71
2023/01/15 04:30:41;;;;;;;12.05;1.58;;;;;;;;;;5052898;28;20502;-71
2023/01/15 04:33:07;;;;;;;12.98;1.60;;;;;;;;;;5053136;28;20048;-71
2023/01/15 04:35:34;;;;;;;7.50;1.58;;;;;;;;;;5036429;28;20048;-71
2023/01/15 04:38:00;;;;;;;10.90;1.60;;;;;;;;;;5053037;28;20041;-71
2023/01/15 04:45:57;;;;;;;15.60;1.60;;;;;;;;;;5052482;28;20045;-71
2023/01/15 04:48:24;;;;;;;10.52;1.58;;;;;;;;;;5053022;28;20282;-71
2023/01/15 04:50:50;;;;;;;9.48;1.90;;;;;;;;;;5052745;28;20041;-71
2023/01/15 04:53:16;;;;;;;11.73;1.60;;;;;;;;;;5052338;28;20037;-71
2023/01/15 04:55:42;;;;;;;10.93;1.70;;;;;;;;;;5052106;28;20087;-72
2023/01/15 04:58:08;;;;;;;10.77;1.80;;;;;;;;;;5053642;28;20037;-71
2023/01/15 05:00:34;;;;;;;11.40;1.88;;;;;;;;;;5052561;28;20079;-71
2023/01/15 05:03:00;;;;;;;10.82;1.23;;;;;;;;;;5049531;28;20048;-71
2023/01/15 05:05:26;;;;;;;9.30;1.60;;;;;;;;;;5034113;28;20037;-71
2023/01/15 05:07:53;;;;;;;10.95;1.70;;;;;;;;;;5051392;28;20049;-71
2023/01/15 05:10:19;;;;;;;15.65;1.52;;;;;;;;;;5035531;28;20041;-71
2023/01/15 05:12:45;;;;;;;10.63;1.42;;;;;;;;;;5051820;28;20175;-72
2023/01/15 05:15:11;;;;;;;9.88;1.83;;;;;;;;;;5052279;28;20563;-72
2023/01/15 05:17:37;;;;;;;15.20;1.75;;;;;;;;;;5052212;28;20045;-71
2023/01/15 05:20:03;;;;;;;9.15;2.67;;;;;;;;;;5051553;28;20118;-71
2023/01/15 05:22:29;;;;;;;13.48;1.92;;;;;;;;;;5051983;28;20040;-71
2023/01/15 05:24:55;;;;;;;9.07;1.20;;;;;;;;;;5051321;28;20500;-71
2023/01/15 05:27:21;;;;;;;11.32;1.50;;;;;;;;;;5052251;28;20465;-71
2023/01/15 05:29:47;;;;;;;14.38;2.00;;;;;;;;;;5035053;28;20130;-71
2023/01/15 05:32:13;;;;;;;10.27;1.70;;;;;;;;;;5052312;28;20513;-71
2023/01/15 05:34:40;;;;;;;11.90;1.45;;;;;;;;;;5051831;28;20084;-71
2023/01/15 05:37:06;;;;;;;10.65;1.58;;;;;;;;;;5051908;28;20057;-71
2023/01/15 05:39:32;;;;;;;12.93;1.70;;;;;;;;;;5052068;28;20500;-71
2023/01/15 05:41:58;;;;;;;8.63;1.40;;;;;;;;;;5051285;28;20049;-71
2023/01/15 05:44:28;;;;;;;10.23;1.70;;;;;;;;;;5035122;28;20079;-71
2023/01/15 05:46:56;;;;;;;11.02;1.63;;;;;;;;;;5051588;28;20049;-71
2023/01/15 05:49:23;;;;;;;8.68;1.60;;;;;;;;;;5051812;28;20045;-71
2023/01/15 05:51:50;;;;;;;11.40;1.50;;;;;;;;;;5052732;28;20497;-71
2023/01/15 05:54:18;;;;;;;9.35;1.75;;;;;;;;;;5051408;28;20055;-71
2023/01/15 05:56:44;;;;;;;10.32;1.33;;;;;;;;;;5051008;28;20107;-71
2023/01/15 05:59:10;;;;;;;11.68;1.80;;;;;;;;;;5052788;28;20086;-71
2023/01/15 06:01:36;;;;;;;15.75;1.77;;;;;;;;;;5052763;28;20033;-71
2023/01/15 06:04:04;;;;;;;9.10;1.60;;;;;;;;;;5050780;28;20052;-71
2023/01/15 06:06:30;;;;;;;9.43;1.70;;;;;;;;;;5052293;28;20108;-71
2023/01/15 06:08:56;;;;;;;12.07;1.50;;;;;;;;;;5051117;28;20068;-71
2023/01/15 06:11:22;;;;;;;13.52;1.45;;;;;;;;;;5052477;28;20095;-71
2023/01/15 06:13:48;;;;;;;16.52;2.05;;;;;;;;;;5052221;28;20474;-71
2023/01/15 06:16:14;;;;;;;7.38;1.25;;;;;;;;;;5050876;28;20052;-71
2023/01/15 06:18:41;;;;;;;8.15;1.13;;;;;;;;;;5052748;28;20064;-72
2023/01/15 06:21:08;;;;;;;9.90;1.38;;;;;;;;;;5050906;28;20048;-71
2023/01/15 06:23:37;;;;;;;11.45;1.60;;;;;;;;;;5053349;28;20040;-71
2023/01/15 06:26:05;;;;;;;9.45;1.30;;;;;;;;;;5062178;28;20490;-72
2023/01/15 06:28:31;;;;;;;7.07;1.50;;;;;;;;;;5034417;28;20127;-71
2023/01/15 06:30:57;;;;;;;5.90;1.20;;;;;;;;;;5051087;28;20401;-72
2023/01/15 06:33:23;;;;;;;14.38;1.63;;;;;;;;;;5050860;28;20045;-72
2023/01/15 06:35:49;;;;;;;8.90;1.58;;;;;;;;;;5050503;28;20041;-72
2023/01/15 06:38:15;;;;;;;9.50;1.33;;;;;;;;;;5034232;28;20045;-71
2023/01/15 06:40:42;;;;;;;13.77;1.83;;;;;;;;;;5051141;28;20510;-71
2023/01/15 06:48:38;;;;;;;8.00;1.30;;;;;;;;;;5050740;28;20048;-72
2023/01/15 06:51:05;;;;;;;10.32;1.10;;;;;;;;;;5050507;28;20124;-73
2023/01/15 06:53:49;;;;;;;12.00;1.42;;;;;;;;;;5052526;28;20067;-72
2023/01/15 06:56:15;;;;;;;9.80;1.60;;;;;;;;;;5072543;28;20500;-72
2023/01/15 06:58:41;;;;;;;7.05;1.40;;;;;;;;;;5054249;28;20398;-71
2023/01/15 07:01:12;;;;;;;9.77;1.33;;;;;;;;;;5053450;28;20124;-72
2023/01/15 07:03:38;;;;;;;5.70;0.98;;;;;;;;;;5070476;28;20047;-71
2023/01/15 07:06:11;;;;;;;5.82;1.33;;;;;;;;;;5070127;28;20098;-72
2023/01/15 07:08:37;;;;;;;9.35;1.55;;;;;;;;;;5050036;28;20402;-79
2023/01/15 07:11:04;;;;;;;10.10;1.40;;;;;;;;;;5060933;28;20044;-78
2023/01/15 07:13:30;;;;;;;9.10;1.10;;;;;;;;;;5072296;28;20044;-78
2023/01/15 07:16:25;;;;;;;7.57;1.38;;;;;;;;;;5072244;28;20055;-78
2023/01/15 07:18:51;;;;;;;8.07;1.25;;;;;;;;;;5070815;28;20102;-78
2023/01/15 07:21:18;;;;;;;9.73;1.23;;;;;;;;;;5070670;28;20223;-76
2023/01/15 07:23:44;;;;;;;8.82;2.03;;;;;;;;;;5104506;28;20443;-76
2023/01/15 07:26:10;;;;;;;11.40;1.80;;;;;;;;;;5070510;28;20401;-76
2023/01/15 07:28:36;;;;;;;8.32;1.42;;;;;;;;;;5072808;28;20485;-77
2023/01/15 07:31:02;;;;;;;8.30;1.10;;;;;;;;;;5074006;28;20043;-77
2023/01/15 07:33:28;;;;;;;9.68;1.40;;;;;;;;;;5073205;28;20040;-76
2023/01/15 07:35:55;;;;;;;10.82;1.40;;;;;;;;;;5063480;28;20048;-77
2023/01/15 07:38:22;;;;;;;7.45;1.23;;;;;;;;;;5066550;28;20501;-77
2023/01/15 07:49:44;;;;;;;5.40;1.02;;;;;;;;;;5054377;28;20468;-77
2023/01/15 07:51:57;;;;;;;6.40;1.38;;;;;;;;;;5041571;28;20044;-78
2023/01/15 07:54:24;;;;;;;8.07;1.33;;;;;;;;;;5053998;28;20055;-77
2023/01/15 07:56:51;;;;;;;9.43;1.50;;;;;;;;;;5054181;28;20599;-78
2023/01/15 07:59:17;;;;;;;6.63;1.20;;;;;;;;;;5053460;28;20040;-78
2023/01/15 08:01:43;;;;;;;11.95;1.88;;;;;;;;;;5053912;28;20509;-77
2023/01/15 08:04:10;;;;;;;8.90;1.38;;;;;;;;;;5053748;28;20536;-77
2023/01/15 08:06:36;;;;;;;13.20;1.40;;;;;;;;;;5053654;28;20061;-78
2023/01/15 08:09:03;;;;;;;12.15;1.38;;;;;;;;;;5053460;28;20041;-77
2023/01/15 08:17:12;;;;;;;11.02;1.40;;;;;;;;;;5053413;28;20133;-78
2023/01/15 08:19:41;;;;;;;6.75;1.40;;;;;;;;;;5053942;28;20470;-80
2023/01/15 08:22:09;;;;;;;13.32;1.50;;;;;;;;;;5053051;28;20033;-77
2023/01/15 08:24:35;;;;;;;12.65;1.65;;;;;;;;;;5053309;28;20106;-77
2023/01/15 08:27:01;;;;;;;9.65;1.60;;;;;;;;;;5052786;28;20041;-77
2023/01/15 08:29:27;;;;;;;10.07;1.40;;;;;;;;;;5036777;28;20045;-79
2023/01/15 08:31:53;;;;;;;7.45;1.27;;;;;;;;;;5053455;28;20065;-79
2023/01/15 08:34:20;;;;;;;9.90;1.42;;;;;;;;;;5054344;28;20110;-79
2023/01/15 08:36:46;;;;;;;8.98;1.40;;;;;;;;;;5053176;28;20147;-78
2023/01/15 08:39:12;;;;;;;9.68;1.70;;;;;;;;;;5035927;28;20094;-77
2023/01/15 08:41:38;;;;;;;12.23;1.98;;;;;;;;;;5053486;28;20452;-77
2023/01/15 08:44:04;;;;;;;11.75;1.88;;;;;;;;;;5052889;28;20045;-78
2023/01/15 08:46:30;;;;;;;12.02;1.40;;;;;;;;;;5054411;28;20387;-77
2023/01/15 08:48:56;;;;;;;15.68;2.00;;;;;;;;;;5053143;28;20440;-77
2023/01/15 08:51:22;;;;;;;11.55;1.63;;;;;;;;;;5052986;28;20363;-78
2023/01/15 08:53:48;;;;;;;11.10;1.83;;;;;;;;;;5036544;28;20041;-78
2023/01/15 08:56:16;;;;;;;12.73;2.22;;;;;;;;;;5036241;28;20045;-78
2023/01/15 08:58:46;;;;;;;8.10;1.05;;;;;;;;;;5054925;28;20044;-77
2023/01/15 09:01:15;;;;;;;5.53;1.02;;;;;;;;;;5035857;28;20052;-77
2023/01/15 09:03:42;;;;;;;7.57;1.23;;;;;;;;;;5040692;28;20041;-77
2023/01/15 09:06:09;;;;;;;5.72;0.85;;;;;;;;;;5052357;28;20044;-77
2023/01/15 09:08:36;;;;;;;7.82;1.10;;;;;;;;;;5052666;28;20052;-77
2023/01/15 09:11:03;;;;;;;7.07;1.20;;;;;;;;;;5054146;28;20076;-77
2023/01/15 09:13:29;;;;;;;9.38;0.85;;;;;;;;;;5052217;28;20072;-77
2023/01/15 09:16:02;;;;;;;8.65;1.48;;;;;;;;;;5052560;28;20401;-77
2023/01/15 09:18:29;;;;;;;11.80;1.67;;;;;;;;;;5052247;28;20480;-77
2023/01/15 09:20:55;;;;;;;9.73;1.10;;;;;;;;;;5072261;28;20055;-76
2023/01/15 09:23:21;;;;;;;15.30;3.03;;;;;;;;;;5072273;28;20080;-77
2023/01/15 09:25:57;;;;;;;11.63;1.75;;;;;;;;;;5051687;28;20090;-77
2023/01/15 09:28:24;;;;;;;10.82;1.60;;;;;;;;;;5064173;28;20032;-72
2023/01/15 09:30:50;;;;;;;12.40;1.92;;;;;;;;;;5074291;28;20059;-72
2023/01/15 09:33:16;;;;;;;13.07;1.77;;;;;;;;;;5071524;28;20045;-72
2023/01/15 09:35:43;;;;;;;9.00;1.60;;;;;;;;;;5069600;28;20472;-71
2023/01/15 09:38:13;;;;;;;18.00;3.00;;;;;;;;;;5065369;28;20041;-71
2023/01/15 09:40:56;;;;;;;10.93;1.63;;;;;;;;;;5051920;28;20044;-71
2023/01/15 09:43:41;;;;;;;12.95;1.88;;;;;;;;;;5038841;28;20124;-71
2023/01/15 09:46:12;;;;;;;13.45;1.80;;;;;;;;;;5051528;28;20052;-71
2023/01/15 09:48:50;;;;;;;10.55;1.63;;;;;;;;;;5051830;28;20045;-71
2023/01/15 09:51:19;;;;;;;11.40;2.00;;;;;;;;;;5050717;28;20091;-72
2023/01/15 09:53:46;;;;;;;12.13;1.80;;;;;;;;;;5051627;28;20049;-72
2023/01/15 09:56:19;;;;;;;12.23;2.45;;;;;;;;;;5035018;28;20048;-71
2023/01/15 09:58:45;;;;;;;13.65;1.83;;;;;;;;;;5051897;28;20036;-72
2023/01/15 10:01:19;;;;;;;16.45;2.65;;;;;;;;;;5051348;28;20041;-72
2023/01/15 10:04:01;;;;;;;14.65;1.80;;;;;;;;;;5038375;28;20105;-72
2023/01/15 10:06:29;;;;;;;13.98;2.47;;;;;;;;;;5034330;28;20044;-72
2023/01/15 10:09:22;;;;;;;12.05;1.83;;;;;;;;;;5051346;28;20060;-72
2023/01/15 10:14:56;;;;;;;12.98;2.45;;;;;;;;;;5051155;28;20107;-71
2023/01/15 10:17:28;;;;;;;14.25;2.30;;;;;;;;;;5051070;28;20514;-72
2023/01/15 10:19:54;;;;;;;11.80;2.05;;;;;;;;;;5051121;28;20041;-72
2023/01/15 10:22:27;;;;;;;11.50;1.77;;;;;;;;;;5050868;28;20040;-72
2023/01/15 10:24:55;;;;;;;11.40;1.80;;;;;;;;;;5034877;28;20049;-72
2023/01/15 10:27:23;;;;;;;13.88;1.50;;;;;;;;;;5052228;28;20037;-72
2023/01/15 10:29:51;;;;;;;17.17;1.70;;;;;;;;;;5052189;28;20048;-71
2023/01/15 10:32:30;;;;;;;9.63;1.70;;;;;;;;;;5052201;28;20037;-72
2023/01/15 10:35:16;;;;;;;11.02;1.92;;;;;;;;;;5051069;28;20056;-71
2023/01/15 10:37:43;;;;;;;12.55;1.58;;;;;;;;;;5043370;28;20075;-71
2023/01/15 10:40:39;;;;;;;15.88;2.20;;;;;;;;;;5050825;28;20051;-72
2023/01/15 10:43:23;;;;;;;14.15;1.98;;;;;;;;;;5031474;28;20049;-72
2023/01/15 10:46:15;;;;;;;12.85;1.80;;;;;;;;;;5050763;28;20041;-72
2023/01/15 10:48:43;;;;;;;14.80;2.00;;;;;;;;;;5021259;28;20413;-72
2023/01/15 10:51:34;;;;;;;14.93;1.95;;;;;;;;;;5050734;28;20044;-72
2023/01/15 10:54:14;;;;;;;16.00;2.08;;;;;;;;;;5050833;28;20037;-71
2023/01/15 10:56:42;;;;;;;15.18;1.90;;;;;;;;;;5051857;28;20412;-72
2023/01/15 10:59:17;;;;;;;13.73;1.80;;;;;;;;;;5050906;28;20037;-72
2023/01/15 11:01:43;;;;;;;15.93;1.60;;;;;;;;;;5050828;28;20048;-72
2023/01/15 11:04:13;;;;;;;14.82;1.63;;;;;;;;;;5054166;28;20044;-72
2023/01/15 11:06:40;;;;;;;12.88;1.50;;;;;;;;;;5037673;28;20049;-72
2023/01/15 11:09:07;;;;;;;13.48;2.00;;;;;;;;;;5054642;28;20049;-72
2023/01/15 11:20:33;;;;;;;9.27;1.67;;;;;;;;;;5054322;28;20049;-72
2023/01/15 11:23:07;;;;;;;9.48;1.50;;;;;;;;;;5055815;28;20060;-72
2023/01/15 11:25:33;;;;;;;14.00;1.67;;;;;;;;;;5054052;28;20106;-72
2023/01/15 11:28:02;;;;;;;10.52;1.48;;;;;;;;;;5054997;28;20041;-73
2023/01/15 11:30:32;;;;;;;11.57;1.85;;;;;;;;;;5053860;28;20048;-71
2023/01/15 11:33:02;;;;;;;14.68;1.80;;;;;;;;;;5037555;28;20048;-70
2023/01/15 11:35:29;;;;;;;11.10;1.80;;;;;;;;;;5053895;28;20040;-70
2023/01/15 11:38:12;;;;;;;10.15;1.88;;;;;;;;;;5055552;28;20032;-71
2023/01/15 11:40:38;;;;;;;10.63;2.53;;;;;;;;;;5037267;28;20068;-70
2023/01/15 11:51:38;;;;;;;10.18;1.35;;;;;;;;;;5053742;28;20432;-72
2023/01/15 11:54:05;;;;;;;11.20;1.90;;;;;;;;;;5053942;28;20056;-72
2023/01/15 11:56:32;;;;;;;8.68;1.50;;;;;;;;;;5054584;28;20029;-72
2023/01/15 11:59:01;;;;;;;12.43;1.90;;;;;;;;;;5053960;28;20552;-71
2023/01/15 12:01:30;;;;;;;17.30;2.13;;;;;;;;;;5054007;28;20037;-71
2023/01/15 12:03:57;;;;;;;10.52;1.48;;;;;;;;;;5053654;28;20044;-72
2023/01/15 12:06:24;;;;;;;12.25;1.75;;;;;;;;;;5053212;28;20037;-72
2023/01/15 12:08:51;;;;;;;11.25;1.83;;;;;;;;;;5053335;28;20164;-72
2023/01/15 12:11:32;;;;;;;10.60;2.58;;;;;;;;;;5054689;28;20056;-72
2023/01/15 12:14:02;;;;;;;9.35;1.85;;;;;;;;;;5041411;28;20482;-71
2023/01/15 12:16:43;;;;;;;15.02;2.40;;;;;;;;;;5053342;28;20076;-72
2023/01/15 12:19:27;;;;;;;12.27;1.88;;;;;;;;;;5041395;28;20490;-72
2023/01/15 12:22:09;;;;;;;14.60;1.92;;;;;;;;;;5052779;28;20048;-72
2023/01/15 12:24:54;;;;;;;9.13;2.17;;;;;;;;;;5053004;28;20135;-72
2023/01/15 12:27:39;;;;;;;12.57;1.70;;;;;;;;;;5054675;28;20535;-71
2023/01/15 12:30:23;;;;;;;9.75;1.70;;;;;;;;;;5053282;28;20049;-73
2023/01/15 12:33:09;;;;;;;10.52;2.03;;;;;;;;;;5041202;28;20071;-71
2023/01/15 12:35:37;;;;;;;11.10;1.57;;;;;;;;;;5052469;28;20060;-72
2023/01/15 12:38:17;;;;;;;10.35;1.75;;;;;;;;;;5052992;28;20068;-72
2023/01/15 12:40:47;;;;;;;13.63;2.30;;;;;;;;;;5053895;28;20072;-72
2023/01/15 12:46:07;;;;;;;11.40;1.85;;;;;;;;;;5053167;28;20049;-72
2023/01/15 12:48:39;;;;;;;14.52;2.15;;;;;;;;;;5052866;28;20041;-71
2023/01/15 12:51:06;;;;;;;12.52;1.98;;;;;;;;;;5036409;28;20049;-71
2023/01/15 12:53:38;;;;;;;14.05;2.38;;;;;;;;;;5053071;28;20485;-71
2023/01/15 12:56:17;;;;;;;10.02;1.30;;;;;;;;;;5052709;28;20245;-71
2023/01/15 12:58:47;;;;;;;10.75;1.83;;;;;;;;;;5032515;28;20489;-71
2023/01/15 13:01:13;;;;;;;11.25;1.67;;;;;;;;;;5046616;28;20037;-71
2023/01/15 13:03:59;;;;;;;12.20;1.80;;;;;;;;;;5052251;28;20087;-71
2023/01/15 13:06:27;;;;;;;18.40;2.33;;;;;;;;;;5022954;28;20060;-71
2023/01/15 13:09:10;;;;;;;9.77;1.75;;;;;;;;;;5052383;28;20049;-71
2023/01/15 13:11:36;;;;;;;16.83;2.05;;;;;;;;;;5052804;28;20041;-71
2023/01/15 13:14:02;;;;;;;17.00;1.98;;;;;;;;;;5051993;28;20143;-71
2023/01/15 13:16:49;;;;;;;10.68;1.60;;;;;;;;;;5052373;28;20037;-71
2023/01/15 13:19:21;;;;;;;9.60;1.50;;;;;;;;;;5042377;28;20051;-71
2023/01/15 13:21:50;;;;;;;13.05;2.03;;;;;;;;;;5051928;28;20386;-71
2023/01/15 13:24:35;;;;;;;8.48;1.90;;;;;;;;;;5035620;28;20542;-71
2023/01/15 13:27:17;;;;;;;11.68;1.52;;;;;;;;;;5050725;28;20051;-71
2023/01/15 13:29:52;;;;;;;11.38;1.90;;;;;;;;;;5051700;28;20167;-71
2023/01/15 13:32:20;;;;;;;14.43;1.53;;;;;;;;;;5051964;28;20163;-71
2023/01/15 13:34:53;;;;;;;13.63;2.10;;;;;;;;;;5051637;28;20080;-71
2023/01/15 13:37:19;;;;;;;9.32;1.90;;;;;;;;;;5051707;28;20049;-71
2023/01/15 13:39:47;;;;;;;8.27;1.75;;;;;;;;;;5051490;28;20119;-71
2023/01/15 13:42:31;;;;;;;7.82;1.88;;;;;;;;;;5051861;28;20409;-71
2023/01/15 13:44:59;;;;;;;11.15;1.00;;;;;;;;;;5051410;28;20118;-71
2023/01/15 13:47:27;;;;;;;5.32;0.90;;;;;;;;;;5051722;28;20171;-71
2023/01/15 13:50:00;;;;;;;3.72;0.60;;;;;;;;;;5034812;28;20037;-71
2023/01/15 13:52:28;;;;;;;8.43;1.02;;;;;;;;;;5051473;28;20045;-71
2023/01/15 13:54:57;;;;;;;8.35;0.98;;;;;;;;;;5051117;28;20122;-71
2023/01/15 13:57:25;;;;;;;5.60;1.08;;;;;;;;;;5051700;28;20167;-71
2023/01/15 13:59:51;;;;;;;5.13;1.23;;;;;;;;;;5052658;28;20036;-71
2023/01/15 14:02:28;;;;;;;7.43;1.23;;;;;;;;;;5051841;28;20040;-72
2023/01/15 14:04:54;;;;;;;8.48;1.50;;;;;;;;;;5052345;28;20049;-72
2023/01/15 14:07:22;;;;;;;6.95;1.67;;;;;;;;;;5051199;28;20060;-72
2023/01/15 14:09:49;;;;;;;6.38;1.10;;;;;;;;;;5034588;28;20401;-72
2023/01/15 14:12:34;;;;;;;8.68;1.13;;;;;;;;;;5051524;28;20055;-72
2023/01/15 14:15:19;;;;;;;8.00;1.13;;;;;;;;;;5034514;28;20056;-72
2023/01/15 14:18:12;;;;;;;6.05;1.08;;;;;;;;;;5067563;28;20536;-71
2023/01/15 14:20:45;;;;;;;6.60;1.17;;;;;;;;;;5071201;28;20058;-72
2023/01/15 14:23:14;;;;;;;8.10;1.00;;;;;;;;;;5070541;28;20083;-71
2023/01/15 14:25:48;;;;;;;8.27;1.02;;;;;;;;;;5071048;28;20138;-72
2023/01/15 14:28:38;;;;;;;7.35;1.20;;;;;;;;;;5071271;28;20401;-71
2023/01/15 14:31:16;;;;;;;7.78;1.10;;;;;;;;;;5051983;28;20375;-72
2023/01/15 14:33:42;;;;;;;7.32;1.35;;;;;;;;;;5067736;28;20033;-72
2023/01/15 14:36:17;;;;;;;11.18;1.40;;;;;;;;;;5069696;28;20044;-72
2023/01/15 14:38:55;;;;;;;10.07;1.27;;;;;;;;;;5059357;28;20044;-71
2023/01/15 14:41:28;;;;;;;7.03;1.30;;;;;;;;;;5051148;28;20098;-72
2023/01/15 14:43:55;;;;;;;8.55;1.38;;;;;;;;;;5050584;28;20051;-72
2023/01/15 14:46:26;;;;;;;9.40;1.15;;;;;;;;;;5051317;28;20528;-72
2023/01/15 14:48:52;;;;;;;8.52;1.05;;;;;;;;;;5050413;28;20044;-72
2023/01/15 14:51:24;;;;;;;8.05;1.45;;;;;;;;;;5050960;28;20048;-71
2023/01/15 14:54:04;;;;;;;6.93;1.10;;;;;;;;;;5050663;28;20041;-72
2023/01/15 14:56:32;;;;;;;8.57;1.20;;;;;;;;;;5051041;28;20466;-72
2023/01/15 14:58:58;;;;;;;5.90;1.10;;;;;;;;;;5050312;28;20052;-72
2023/01/15 15:01:41;;;;;;;5.30;1.05;;;;;;;;;;5051081;28;20048;-72
2023/01/15 15:04:12;;;;;;;5.53;0.88;;;;;;;;;;5050241;28;20045;-72
2023/01/15 15:06:59;;;;;;;6.00;1.20;;;;;;;;;;5050727;28;20063;-72
2023/01/15 15:09:34;;;;;;;7.03;1.23;;;;;;;;;;5050667;28;20405;-72
2023/01/15 15:12:19;;;;;;;8.07;1.25;;;;;;;;;;5050490;28;20350;-72
2023/01/15 15:14:48;;;;;;;7.93;1.30;;;;;;;;;;5050870;28;20052;-72
2023/01/15 15:17:18;;;;;;;11.77;2.38;;;;;;;;;;5050459;28;20051;-72
2023/01/15 15:19:47;;;;;;;12.18;1.83;;;;;;;;;;5050847;28;20514;-72
2023/01/15 15:22:15;;;;;;;6.57;1.40;;;;;;;;;;5050057;28;20048;-72
2023/01/15 15:24:51;;;;;;;8.30;1.50;;;;;;;;;;5050507;28;20045;-72
2023/01/15 15:27:18;;;;;;;9.30;1.33;;;;;;;;;;5050827;28;20041;-72
2023/01/15 15:29:44;;;;;;;10.65;1.80;;;;;;;;;;5051997;28;20065;-72
2023/01/15 15:32:21;;;;;;;10.90;1.20;;;;;;;;;;5049929;28;20111;-72
2023/01/15 15:34:49;;;;;;;13.55;1.70;;;;;;;;;;5050438;28;20079;-72
2023/01/15 15:37:24;;;;;;;10.77;1.60;;;;;;;;;;5051624;28;20044;-72
2023/01/15 15:40:15;;;;;;;10.30;1.65;;;;;;;;;;5036710;28;20041;-72
2023/01/15 15:51:03;;;;;;;5.97;1.45;;;;;;;;;;5053086;28;20072;-72
2023/01/15 15:53:30;;;;;;;11.45;1.17;;;;;;;;;;5053911;28;20048;-72
2023/01/15 15:55:58;;;;;;;8.48;1.23;;;;;;;;;;5054402;28;20122;-72
2023/01/15 15:58:25;;;;;;;9.27;1.50;;;;;;;;;;5037000;28;20555;-72
2023/01/15 16:00:52;;;;;;;8.05;1.98;;;;;;;;;;5053683;28;20079;-72